Погода Спасна неделю

Смоленская область, Россия

24 - 30 мая
  • 24мая
    Сегодня
    +6°
    +21°
    Ясно и безоблачно
    ВремяПогодаТемператураВлажностьДавлениеВетер, м/сВероятность осадков
    00:00Ясно и безоблачно+11°C58 %751 мм2.9 м/с2 %
    03:00Ясно и безоблачно+9°C61 %752 мм2.7 м/с2 %
    06:00Ясно и безоблачно+10°C63 %753 мм2.7 м/с2 %
    09:00Ясно и безоблачно+15°C41 %754 мм2.8 м/с2 %
    12:00Ясно и безоблачно+19°C32 %754 мм4.6 м/с2 %
    15:00Ясно и безоблачно+20°C30 %753 мм4.4 м/с2 %
    18:00Ясно и безоблачно+20°C33 %752 мм3.8 м/с2 %
    21:00Ясно и безоблачно+15°C49 %752 мм2.8 м/с2 %
  • 25мая
    Суббота
    +9°
    +24°
    Ясно и безоблачно
    ВремяПогодаТемператураВлажностьДавлениеВетер, м/сВероятность осадков
    00:00Ясно и безоблачно+10°C56 %752 мм2.7 м/с2 %
    03:00Ясно и безоблачно+8°C67 %752 мм2.4 м/с2 %
    06:00Ясно и безоблачно+8°C69 %752 мм2.5 м/с2 %
    09:00Ясно и безоблачно+16°C52 %752 мм1.8 м/с2 %
    12:00Ясно и безоблачно+21°C37 %751 мм2.3 м/с2 %
    15:00Ясно и безоблачно+23°C32 %750 мм2.7 м/с2 %
    18:00Ясно и безоблачно+23°C34 %749 мм2.1 м/с2 %
    21:00Ясно и безоблачно+18°C60 %748 мм1.7 м/с2 %
  • 26мая
    Воскресенье
    +11°
    +26°
    Облачно с прояснениями
    ВремяПогодаТемператураВлажностьДавлениеВетер, м/сВероятность осадков
    00:00Облачно с прояснениями+13°C70 %748 мм2.1 м/с2 %
    03:00Ясно и безоблачно+10°C81 %748 мм1.7 м/с2 %
    06:00Ясно и безоблачно+11°C79 %748 мм2.0 м/с2 %
    09:00Ясно и безоблачно+20°C53 %748 мм1.3 м/с2 %
    12:00Облачно с прояснениями+24°C36 %748 мм1.9 м/с3 %
    15:00Облачно с прояснениями+25°C32 %748 мм2.4 м/с17 %
    18:00Небольшая облачность+24°C45 %748 мм4.3 м/с26 %
    21:00Ясно и безоблачно+19°C70 %748 мм2.8 м/с12 %
  • 27мая
    Понедельник
    +9°
    +24°
    Небольшая облачность
    ВремяПогодаТемператураВлажностьДавлениеВетер, м/сВероятность осадков
    00:00Практически безоблачно+15°C87 %748 мм3.0 м/с2 %
    03:00Ясно и безоблачно+13°C92 %749 мм3.2 м/с2 %
    06:00Ясно и безоблачно+13°C86 %750 мм2.9 м/с2 %
    09:00Ясно и безоблачно+19°C62 %751 мм3.3 м/с2 %
    12:00Ясно и безоблачно+21°C41 %751 мм3.8 м/с2 %
    15:00Небольшая облачность+23°C33 %750 мм2.5 м/с7 %
    18:00Практически безоблачно+23°C34 %750 мм3.8 м/с10 %
    21:00Ясно и безоблачно+19°C51 %750 мм2.9 м/с2 %
  • 28мая
    Вторник
    +10°
    +24°
    Ясно и безоблачно
    ВремяПогодаТемператураВлажностьДавлениеВетер, м/сВероятность осадков
    00:00Ясно и безоблачно+14°C59 %750 мм2.6 м/с2 %
    03:00Ясно и безоблачно+11°C62 %750 мм2.0 м/с2 %
    06:00Ясно и безоблачно+12°C66 %750 мм2.2 м/с2 %
    09:00Ясно и безоблачно+19°C46 %750 мм2.2 м/с2 %
    12:00Ясно и безоблачно+22°C33 %750 мм2.9 м/с2 %
    15:00Ясно и безоблачно+24°C27 %749 мм2.2 м/с4 %
    18:00Ясно и безоблачно+23°C30 %748 мм1.9 м/с2 %
    21:00Ясно и безоблачно+19°C47 %748 мм2.7 м/с2 %
Мы используем cookies
Соглашаюсь